Terminal Aerodrome Forecast
Issued by NWS

Home | Current Version | Previous Version | Text Only | Print | Product List | Glossary Off
Versions: 1 2 3 4 5 6 7 8 9 10 11 12 13 14 15 16

000
FTUS43 KBIS 091100
TAFMOT
TAF
KMOT 091125Z 0912/1012 VRB05KT 5SM FU SKC
     FM091600 09006KT P6SM FEW040
     FM091900 13008KT P6SM SCT050
     FM100400 16013KT P6SM SKC=

USA.gov is the U.S. government's official web portal to all federal, state and local government web resources and services.